createdAt,value
2022-11-29T00:00:58.036Z,7.5
2022-11-29T00:02:57.983Z,7.5
2022-11-29T00:04:57.502Z,7.6
2022-11-29T00:06:57.267Z,7.5
2022-11-29T00:09:00.493Z,7.6
2022-11-29T00:11:00.280Z,7.6
2022-11-29T00:13:00.027Z,7.6
2022-11-29T00:14:59.833Z,7.6
2022-11-29T00:16:59.599Z,7.5
2022-11-29T00:18:59.344Z,7.5
2022-11-29T00:20:59.144Z,7.6
2022-11-29T00:23:02.280Z,7.5
2022-11-29T00:25:02.088Z,7.5
2022-11-29T00:27:01.905Z,7.6
2022-11-29T00:29:01.694Z,7.6
2022-11-29T00:31:01.481Z,7.6
2022-11-29T00:33:01.124Z,7.6
2022-11-29T00:35:05.207Z,7.6
2022-11-29T00:37:04.150Z,7.5
2022-11-29T00:39:03.942Z,7.5
2022-11-29T00:41:03.631Z,7.6
2022-11-29T00:43:25.456Z,7.6
2022-11-29T00:45:25.228Z,7.6
2022-11-29T00:47:24.887Z,7.5
2022-11-29T00:49:28.104Z,7.6
2022-11-29T00:51:27.918Z,7.5
2022-11-29T00:53:27.699Z,7.5
2022-11-29T00:55:27.632Z,7.5
2022-11-29T00:57:27.148Z,7.4
2022-11-29T00:59:26.871Z,7.5
2022-11-29T01:01:26.705Z,7.3
2022-11-29T01:03:29.864Z,7.4
2022-11-29T01:05:29.707Z,7.4
2022-11-29T01:07:29.443Z,7.5
2022-11-29T01:09:29.224Z,7.4
2022-11-29T01:11:28.940Z,7.4
2022-11-29T01:13:28.684Z,7.4
2022-11-29T01:15:28.402Z,7.5
2022-11-29T01:17:31.595Z,7.4
2022-11-29T01:19:31.309Z,7.4
2022-11-29T01:21:31.143Z,7.5
2022-11-29T01:23:30.851Z,7.4
2022-11-29T01:25:30.736Z,7.5
2022-11-29T01:27:30.294Z,7.5
2022-11-29T01:31:33.441Z,7.4
2022-11-29T01:35:32.957Z,7.5
2022-11-29T01:36:34.597Z,7.4
2022-11-29T01:38:34.309Z,7.4
2022-11-29T01:40:34.038Z,7.4
2022-11-29T01:42:33.761Z,7.4
2022-11-29T01:48:36.490Z,7.4
2022-11-29T01:56:35.572Z,7.4
2022-11-29T01:58:38.853Z,7.4
2022-11-29T02:00:38.572Z,7.4
2022-11-29T02:02:38.452Z,7.4
2022-11-29T02:04:38.196Z,7.4
2022-11-29T02:06:37.933Z,7.4
2022-11-29T02:08:37.764Z,7.4
2022-11-29T02:10:37.563Z,7.4
2022-11-29T02:12:40.773Z,7.4
2022-11-29T02:14:40.509Z,7.5
2022-11-29T02:16:40.334Z,7.4
2022-11-29T02:18:40.142Z,7.4
2022-11-29T02:24:39.287Z,7.4
2022-11-29T02:26:42.483Z,7.4
2022-11-29T02:28:42.228Z,7.4
2022-11-29T02:30:42.101Z,7.4
2022-11-29T02:31:43.593Z,7.3
2022-11-29T02:33:43.318Z,7.4
2022-11-29T02:35:43.134Z,7.4
2022-11-29T02:41:45.879Z,7.4
2022-11-29T02:43:45.680Z,7.4
2022-11-29T02:45:45.463Z,7.4
2022-11-29T02:47:45.176Z,7.5
2022-11-29T02:51:44.615Z,7.5
2022-11-29T02:53:47.819Z,7.5
2022-11-29T02:55:47.545Z,7.5
2022-11-29T02:57:47.368Z,7.4
2022-11-29T02:59:47.086Z,7.4
2022-11-29T03:01:46.931Z,7.5
2022-11-29T03:03:46.727Z,7.4
2022-11-29T03:05:46.534Z,7.5
2022-11-29T03:07:49.856Z,7.5
2022-11-29T03:11:49.287Z,7.5
2022-11-29T03:13:49.088Z,7.5
2022-11-29T03:17:48.537Z,7.4
2022-11-29T03:21:51.476Z,7.4
2022-11-29T03:23:51.286Z,7.3
2022-11-29T03:25:51.093Z,7.3
2022-11-29T03:26:52.700Z,7.4
2022-11-29T03:28:52.491Z,7.3
2022-11-29T03:30:52.289Z,7.4
2022-11-29T03:32:52.026Z,7.4
2022-11-29T03:34:57.435Z,7.3
2022-11-29T03:36:56.037Z,7.4
2022-11-29T03:38:54.860Z,7.3
2022-11-29T03:40:54.688Z,7.3
2022-11-29T03:42:54.532Z,7.3
2022-11-29T03:46:55.668Z,7.4
2022-11-29T03:49:09.127Z,7.4
2022-11-29T03:51:00.163Z,7.4
2022-11-29T03:52:59.976Z,7.4
2022-11-29T03:56:59.618Z,7.4
2022-11-29T03:58:59.429Z,7.3
2022-11-29T04:00:59.240Z,7.4
2022-11-29T04:03:02.550Z,7.3
2022-11-29T04:05:02.282Z,7.3
2022-11-29T04:07:02.122Z,7.3
2022-11-29T04:09:01.935Z,7.4
2022-11-29T04:11:01.726Z,7.4
2022-11-29T04:13:01.559Z,7.3
2022-11-29T04:15:01.337Z,7.3
2022-11-29T04:17:04.585Z,7.4
2022-11-29T04:19:04.325Z,7.4
2022-11-29T04:27:25.679Z,7.3
2022-11-29T04:31:28.704Z,7.3
2022-11-29T04:37:27.823Z,7.3
2022-11-29T04:39:27.672Z,7.2
2022-11-29T04:41:27.470Z,7.3
2022-11-29T04:45:30.307Z,7.4
2022-11-29T04:47:30.106Z,7.3
2022-11-29T04:49:29.933Z,7.2
2022-11-29T04:51:29.755Z,7.3
2022-11-29T04:53:29.535Z,7.2
2022-11-29T04:55:31.102Z,7.2
2022-11-29T04:57:32.476Z,7.2
2022-11-29T04:59:32.197Z,7.3
2022-11-29T05:01:32.008Z,7.2
2022-11-29T05:03:31.756Z,7.2
2022-11-29T05:05:31.569Z,7.3
2022-11-29T05:07:31.504Z,7.2
2022-11-29T05:09:31.066Z,7.3
2022-11-29T05:11:34.272Z,7.2
2022-11-29T05:13:34.115Z,7.2
2022-11-29T05:15:33.932Z,7.3
2022-11-29T05:16:35.545Z,7.2
2022-11-29T05:18:35.291Z,7.2
2022-11-29T05:20:35.097Z,7.2
2022-11-29T05:22:34.887Z,7.3
2022-11-29T05:24:38.138Z,7.2
2022-11-29T05:26:37.963Z,7.2
2022-11-29T05:28:37.683Z,7.2
2022-11-29T05:30:37.510Z,7.2
2022-11-29T05:32:37.301Z,7.2
2022-11-29T05:34:37.038Z,7.2
2022-11-29T05:36:36.833Z,7.1
2022-11-29T05:38:40.078Z,7.1
2022-11-29T05:40:40.056Z,7.1
2022-11-29T05:42:39.593Z,7.2
2022-11-29T05:52:41.907Z,7.1
2022-11-29T05:54:41.839Z,7.2
2022-11-29T05:56:41.543Z,7.2
2022-11-29T05:58:41.386Z,7.1
2022-11-29T06:00:41.328Z,7
2022-11-29T06:02:41.106Z,7.1
2022-11-29T06:04:40.794Z,7.1
2022-11-29T06:06:44.114Z,7
2022-11-29T06:08:43.926Z,7.1
2022-11-29T06:10:43.750Z,7.1
2022-11-29T06:11:45.379Z,7.1
2022-11-29T06:13:45.099Z,7.1
2022-11-29T06:15:44.837Z,7.1
2022-11-29T06:17:44.576Z,7
2022-11-29T06:21:47.603Z,6.9
2022-11-29T06:23:47.439Z,7
2022-11-29T06:25:47.240Z,7
2022-11-29T06:31:46.558Z,6.9
2022-11-29T06:37:49.113Z,6.9
2022-11-29T06:39:48.928Z,7
2022-11-29T06:43:48.564Z,6.8
2022-11-29T06:45:48.361Z,6.9
2022-11-29T06:47:51.483Z,6.8
2022-11-29T06:49:51.241Z,6.8
2022-11-29T06:51:51.041Z,7
2022-11-29T06:53:50.877Z,6.8
2022-11-29T06:55:50.670Z,6.8
2022-11-29T06:57:50.403Z,6.8
2022-11-29T06:59:50.190Z,6.8
2022-11-29T07:01:53.453Z,6.9
2022-11-29T07:03:53.185Z,6.8
2022-11-29T07:05:52.916Z,6.9
2022-11-29T07:06:54.578Z,6.7
2022-11-29T07:08:54.326Z,6.7
2022-11-29T07:10:54.146Z,6.8
2022-11-29T07:12:53.917Z,6.7
2022-11-29T07:14:57.133Z,6.8
2022-11-29T07:16:57.586Z,6.9
2022-11-29T07:18:56.799Z,6.8
2022-11-29T07:20:56.626Z,6.8
2022-11-29T07:22:56.419Z,6.8
2022-11-29T07:24:56.240Z,6.8
2022-11-29T07:26:59.573Z,6.8
2022-11-29T07:36:58.567Z,6.7
2022-11-29T07:38:58.372Z,6.7
2022-11-29T07:40:58.224Z,6.7
2022-11-29T07:43:01.545Z,6.7
2022-11-29T07:45:01.372Z,6.7
2022-11-29T07:47:01.142Z,6.8
2022-11-29T07:49:00.917Z,6.8
2022-11-29T07:51:00.715Z,6.7
2022-11-29T07:53:00.481Z,6.8
2022-11-29T07:57:03.491Z,6.8
2022-11-29T07:59:03.276Z,6.7
2022-11-29T08:01:03.155Z,6.8
2022-11-29T08:03:24.930Z,6.8
2022-11-29T08:05:24.677Z,6.7
2022-11-29T08:07:24.572Z,6.7
2022-11-29T08:09:27.830Z,6.7
2022-11-29T08:11:27.631Z,6.7
2022-11-29T08:13:27.472Z,6.7
2022-11-29T08:15:27.317Z,6.7
2022-11-29T08:17:27.127Z,6.7
2022-11-29T08:19:26.964Z,6.8
2022-11-29T08:21:26.792Z,6.8
2022-11-29T08:25:29.931Z,6.8
2022-11-29T08:27:29.668Z,6.8
2022-11-29T08:29:29.491Z,6.9
2022-11-29T08:31:29.411Z,6.9
2022-11-29T08:33:29.144Z,6.9
2022-11-29T08:35:28.864Z,7
2022-11-29T08:39:31.826Z,6.9
2022-11-29T08:43:31.491Z,6.9
2022-11-29T08:45:31.334Z,6.9
2022-11-29T08:47:31.105Z,7
2022-11-29T08:51:34.243Z,7
2022-11-29T08:53:34.086Z,6.9
2022-11-29T08:55:33.877Z,6.9
2022-11-29T08:57:31.384Z,6.9
2022-11-29T08:58:35.236Z,7
2022-11-29T09:00:34.962Z,7.1
2022-11-29T09:02:34.747Z,7.1
2022-11-29T09:04:37.971Z,7.2
2022-11-29T09:06:37.666Z,7.2
2022-11-29T09:08:37.458Z,7.2
2022-11-29T09:10:37.142Z,7.2
2022-11-29T09:12:36.898Z,7.1
2022-11-29T09:14:36.716Z,7.1
2022-11-29T09:16:36.493Z,7.1
2022-11-29T09:18:39.745Z,7.1
2022-11-29T09:20:39.481Z,7.2
2022-11-29T09:22:39.324Z,7.2
2022-11-29T09:24:39.142Z,7.1
2022-11-29T09:26:38.964Z,7.2
2022-11-29T09:38:42.702Z,7.4
2022-11-29T09:40:42.431Z,7.4
2022-11-29T09:42:42.167Z,7.4
2022-11-29T09:44:41.876Z,7.5
2022-11-29T09:46:45.011Z,7.5
2022-11-29T09:48:44.715Z,7.5
2022-11-29T09:50:44.559Z,7.5
2022-11-29T09:51:46.176Z,7.5
2022-11-29T09:53:45.910Z,7.5
2022-11-29T09:55:45.703Z,7.6
2022-11-29T09:57:45.452Z,7.6
2022-11-29T10:01:48.465Z,7.9
2022-11-29T10:03:48.285Z,7.9
2022-11-29T10:07:47.851Z,7.9
2022-11-29T10:09:47.563Z,7.9
2022-11-29T10:11:47.365Z,8
2022-11-29T10:13:50.569Z,8
2022-11-29T10:15:50.269Z,8
2022-11-29T10:17:50.034Z,8
2022-11-29T10:19:49.698Z,8
2022-11-29T10:21:49.432Z,8
2022-11-29T10:23:49.224Z,8.1
2022-11-29T10:25:48.941Z,8.2
2022-11-29T10:27:52.131Z,8
2022-11-29T10:29:51.847Z,8
2022-11-29T10:31:51.559Z,7.9
2022-11-29T10:33:51.265Z,7.9
2022-11-29T10:35:50.977Z,7.9
2022-11-29T10:38:14.590Z,7.9
2022-11-29T10:39:50.411Z,8
2022-11-29T10:41:53.623Z,8.2
2022-11-29T10:43:53.346Z,8.2
2022-11-29T10:45:53.178Z,8.2
2022-11-29T10:46:54.756Z,8.1
2022-11-29T10:52:58.666Z,8.3
2022-11-29T10:54:57.095Z,8.3
2022-11-29T10:56:56.812Z,8.3
2022-11-29T10:58:56.496Z,8.4
2022-11-29T11:04:55.657Z,8.6
2022-11-29T11:06:55.337Z,8.6
2022-11-29T11:08:58.540Z,8.6
2022-11-29T11:11:01.847Z,8.6
2022-11-29T11:12:57.935Z,8.6
2022-11-29T11:14:57.625Z,8.7
2022-11-29T11:16:57.336Z,8.6
2022-11-29T11:18:57.039Z,8.6
2022-11-29T11:20:56.719Z,8.6
2022-11-29T11:22:59.889Z,8.7
2022-11-29T11:26:59.238Z,8.8
2022-11-29T11:28:58.928Z,8.8
2022-11-29T11:30:58.661Z,8.9
2022-11-29T11:34:58.034Z,8.8
2022-11-29T11:37:01.145Z,9
2022-11-29T11:49:24.894Z,9.6
2022-11-29T11:51:24.595Z,9.6
2022-11-29T11:53:24.278Z,9.5
2022-11-29T11:55:23.953Z,9.5
2022-11-29T11:57:23.631Z,9.5
2022-11-29T11:59:23.313Z,9.5
2022-11-29T12:03:26.144Z,9.4
2022-11-29T12:05:25.789Z,9.4
2022-11-29T12:07:45.181Z,9.6
2022-11-29T12:09:25.149Z,9.7
2022-11-29T12:11:24.815Z,9.8
2022-11-29T12:13:24.490Z,9.8
2022-11-29T12:15:24.180Z,9.7
2022-11-29T12:17:27.270Z,9.5
2022-11-29T12:19:26.958Z,9.6
2022-11-29T12:21:26.594Z,9.8
2022-11-29T12:23:26.286Z,9.9
2022-11-29T12:25:25.965Z,9.6
2022-11-29T12:27:25.648Z,9.4
2022-11-29T12:29:25.297Z,9.3
2022-11-29T12:31:28.409Z,9.2
2022-11-29T12:33:28.045Z,9.2
2022-11-29T12:35:27.712Z,9.4
2022-11-29T12:36:29.262Z,9.6
2022-11-29T12:38:28.922Z,9.6
2022-11-29T12:40:28.573Z,9.6
2022-11-29T12:42:28.243Z,9.5
2022-11-29T12:44:31.343Z,10
2022-11-29T12:46:31.170Z,10.1
2022-11-29T12:48:30.700Z,10.8
2022-11-29T12:50:30.412Z,10.6
2022-11-29T12:52:30.072Z,11.1
2022-11-29T12:54:29.747Z,11.3
2022-11-29T12:56:29.430Z,10.6
2022-11-29T12:58:32.536Z,10.6
2022-11-29T13:00:32.204Z,11.4
2022-11-29T13:02:31.959Z,12.6
2022-11-29T13:04:31.550Z,11.8
2022-11-29T13:06:31.247Z,11
2022-11-29T13:12:33.636Z,12
2022-11-29T13:14:43.620Z,12.6
2022-11-29T13:18:32.599Z,10.7
2022-11-29T13:20:32.211Z,10.3
2022-11-29T13:22:31.880Z,10.4
2022-11-29T13:26:34.618Z,11.8
2022-11-29T13:28:34.312Z,12.2
2022-11-29T13:30:33.977Z,12.3
2022-11-29T13:31:35.552Z,12.9
2022-11-29T13:33:35.154Z,12.6
2022-11-29T13:35:34.828Z,12.7
2022-11-29T13:37:34.471Z,11.8
2022-11-29T13:39:37.532Z,11.3
2022-11-29T13:41:37.199Z,11
2022-11-29T13:43:36.857Z,10.4
2022-11-29T13:45:36.524Z,10.4
2022-11-29T13:47:36.167Z,10.6
2022-11-29T13:49:35.882Z,11.1
2022-11-29T13:51:35.515Z,12.2
2022-11-29T13:55:38.226Z,12.8
2022-11-29T13:59:40.498Z,12.8
2022-11-29T14:01:37.264Z,12.2
2022-11-29T14:05:36.550Z,12.5
2022-11-29T14:07:39.682Z,12.4
2022-11-29T14:09:39.252Z,12.1
2022-11-29T14:11:38.952Z,11.7
2022-11-29T14:13:38.605Z,11.4
2022-11-29T14:15:38.311Z,11.5
2022-11-29T14:17:37.954Z,11.5
2022-11-29T14:23:41.183Z,13.2
2022-11-29T14:25:51.657Z,12.9
2022-11-29T14:34:44.734Z,10.2
2022-11-29T14:36:44.039Z,10
2022-11-29T14:40:43.636Z,9.8
2022-11-29T14:42:43.057Z,9.7
2022-11-29T14:44:42.874Z,9.6
2022-11-29T14:46:42.484Z,9.5
2022-11-29T14:48:45.485Z,9.5
2022-11-29T14:50:45.153Z,9.4
2022-11-29T14:52:44.854Z,9.4
2022-11-29T14:54:48.080Z,9.3
2022-11-29T14:56:44.171Z,9.3
2022-11-29T14:58:43.848Z,9.2
2022-11-29T15:00:43.495Z,9.2
2022-11-29T15:02:46.620Z,9.2
2022-11-29T15:04:46.476Z,9.2
2022-11-29T15:06:51.632Z,9.1
2022-11-29T15:08:45.604Z,9
2022-11-29T15:10:45.306Z,9
2022-11-29T15:12:44.996Z,9
2022-11-29T15:14:44.849Z,8.9
2022-11-29T15:23:04.234Z,8.7
2022-11-29T15:25:03.980Z,8.7
2022-11-29T15:27:03.627Z,8.6
2022-11-29T15:31:06.458Z,8.6
2022-11-29T15:33:06.058Z,8.5
2022-11-29T15:43:07.926Z,8.5
2022-11-29T15:45:07.631Z,8.4
2022-11-29T15:47:07.316Z,8.4
2022-11-29T15:49:07.023Z,8.4
2022-11-29T15:51:06.827Z,8.4
2022-11-29T15:53:06.475Z,8.4
2022-11-29T15:55:06.175Z,8.4
2022-11-29T15:57:09.307Z,8.4
2022-11-29T15:59:08.983Z,8.4
2022-11-29T16:01:08.729Z,8.4
2022-11-29T16:03:08.346Z,8.3
2022-11-29T16:05:08.064Z,8.3
2022-11-29T16:07:07.771Z,8.3
2022-11-29T16:09:07.486Z,8.3
2022-11-29T16:11:10.560Z,8.3
2022-11-29T16:15:09.887Z,8.3
2022-11-29T16:16:11.509Z,8.2
2022-11-29T16:18:11.156Z,8.2
2022-11-29T16:20:10.854Z,8.2
2022-11-29T16:22:10.570Z,8.2
2022-11-29T16:24:13.621Z,8.2
2022-11-29T16:26:13.313Z,8.2
2022-11-29T16:28:13.021Z,8.1
2022-11-29T16:32:12.416Z,8.2
2022-11-29T16:36:11.756Z,8.2
2022-11-29T16:40:14.593Z,8.2
2022-11-29T16:42:14.242Z,8.2
2022-11-29T16:44:13.912Z,8.2
2022-11-29T16:46:13.645Z,8.3
2022-11-29T16:48:13.285Z,8.2
2022-11-29T16:50:12.986Z,8.2
2022-11-29T16:54:15.767Z,8.2
2022-11-29T16:56:15.437Z,8.2
2022-11-29T16:58:15.123Z,8.2
2022-11-29T17:00:14.841Z,8.2
2022-11-29T17:02:14.572Z,8.2
2022-11-29T17:04:23.883Z,8.2
2022-11-29T17:06:17.302Z,8.2
2022-11-29T17:08:17.000Z,8.2
2022-11-29T17:10:16.738Z,8.2
2022-11-29T17:11:18.256Z,8.2
2022-11-29T17:13:17.947Z,8.3
2022-11-29T17:15:17.650Z,8.3
2022-11-29T17:17:17.407Z,8.2
2022-11-29T17:21:20.226Z,8.2
2022-11-29T17:25:19.606Z,8.2
2022-11-29T17:27:19.319Z,8.3
2022-11-29T17:29:19.015Z,8.3
2022-11-29T17:31:18.835Z,8.3
2022-11-29T17:33:21.814Z,8.3
2022-11-29T17:35:21.542Z,8.3
2022-11-29T17:37:21.220Z,8.3
2022-11-29T17:39:20.953Z,8.3
2022-11-29T17:41:20.641Z,8.3
2022-11-29T17:43:20.356Z,8.3
2022-11-29T17:45:20.089Z,8.3
2022-11-29T17:47:23.140Z,8.3
2022-11-29T17:49:22.848Z,8.3
2022-11-29T17:51:50.650Z,8.3
2022-11-29T17:53:22.357Z,8.3
2022-11-29T17:55:24.676Z,8.3
2022-11-29T17:57:21.756Z,8.4
2022-11-29T17:59:21.445Z,8.3
2022-11-29T18:01:24.567Z,8.3
2022-11-29T18:03:24.270Z,8.4
2022-11-29T18:06:25.700Z,8.3
2022-11-29T18:08:25.383Z,8.3
2022-11-29T18:14:27.904Z,8.3
2022-11-29T18:16:27.755Z,8.3
2022-11-29T18:18:27.381Z,8.3
2022-11-29T18:20:27.073Z,8.4
2022-11-29T18:24:26.486Z,8.4
2022-11-29T18:26:26.185Z,8.4
2022-11-29T18:28:29.265Z,8.5
2022-11-29T18:30:29.085Z,8.4
2022-11-29T18:32:28.693Z,8.5
2022-11-29T18:34:28.390Z,8.4
2022-11-29T18:36:28.061Z,8.4
2022-11-29T18:38:27.791Z,8.5
2022-11-29T18:40:27.473Z,8.4
2022-11-29T18:42:30.683Z,8.4
2022-11-29T18:44:30.379Z,8.4
2022-11-29T18:46:30.219Z,8.4
2022-11-29T18:48:29.800Z,8.4
2022-11-29T18:50:29.481Z,8.5
2022-11-29T18:52:29.210Z,8.4
2022-11-29T18:54:28.884Z,8.4
2022-11-29T18:56:32.079Z,8.4
2022-11-29T18:58:31.695Z,8.4
2022-11-29T19:00:31.387Z,8.4
2022-11-29T19:02:58.266Z,8.3
2022-11-29T19:04:57.907Z,8.4
2022-11-29T19:06:57.595Z,8.4
2022-11-29T19:09:00.710Z,8.4
2022-11-29T19:11:00.432Z,8.4
2022-11-29T19:13:00.131Z,8.4
2022-11-29T19:16:59.515Z,8.5
2022-11-29T19:18:59.220Z,8.5
2022-11-29T19:20:58.938Z,8.4
2022-11-29T19:23:02.044Z,8.4
2022-11-29T19:25:01.716Z,8.4
2022-11-29T19:27:01.433Z,8.5
2022-11-29T19:29:01.209Z,8.4
2022-11-29T19:31:00.970Z,8.5
2022-11-29T19:33:00.615Z,8.5
2022-11-29T19:35:00.305Z,8.5
2022-11-29T19:37:03.396Z,8.5
2022-11-29T19:39:03.081Z,8.5
2022-11-29T19:41:02.810Z,8.4
2022-11-29T19:43:02.471Z,8.5
2022-11-29T19:45:16.576Z,8.5
2022-11-29T19:47:01.857Z,8.5
2022-11-29T19:49:01.591Z,8.4
2022-11-29T19:51:04.664Z,8.4
2022-11-29T19:53:04.361Z,8.4
2022-11-29T19:58:05.280Z,8.3
2022-11-29T20:00:04.993Z,8.1
2022-11-29T20:02:04.748Z,8.2
2022-11-29T20:04:07.799Z,8.1
2022-11-29T20:06:07.559Z,8.1
2022-11-29T20:08:07.234Z,8.1
2022-11-29T20:10:06.951Z,8
2022-11-29T20:12:06.658Z,8
2022-11-29T20:14:06.364Z,8.1
2022-11-29T20:16:06.329Z,8
2022-11-29T20:18:09.213Z,8
2022-11-29T20:20:08.973Z,8
2022-11-29T20:22:08.648Z,8
2022-11-29T20:24:08.317Z,7.9
2022-11-29T20:26:08.048Z,7.9
2022-11-29T20:28:07.734Z,7.8
2022-11-29T20:30:07.433Z,7.7
2022-11-29T20:32:10.556Z,7.6
2022-11-29T20:34:10.268Z,7.5
2022-11-29T20:38:09.634Z,7.3
2022-11-29T20:40:09.364Z,7.2
2022-11-29T20:42:09.092Z,7.2
2022-11-29T20:44:08.864Z,7.1
2022-11-29T20:46:12.083Z,7
2022-11-29T20:48:11.822Z,7
2022-11-29T20:50:11.550Z,7
2022-11-29T20:51:13.132Z,7
2022-11-29T20:53:12.952Z,7
2022-11-29T20:55:12.720Z,7
2022-11-29T21:07:16.482Z,7.2
2022-11-29T21:09:16.161Z,7.3
2022-11-29T21:11:15.960Z,7.3
2022-11-29T21:13:19.298Z,7.3
2022-11-29T21:15:19.103Z,7.3
2022-11-29T21:17:18.925Z,7.3
2022-11-29T21:19:18.721Z,7.3
2022-11-29T21:21:18.532Z,7.3
2022-11-29T21:23:18.274Z,7.3
2022-11-29T21:25:18.067Z,7.3
2022-11-29T21:27:21.261Z,7.2
2022-11-29T21:29:21.063Z,7.2
2022-11-29T21:35:20.324Z,7.2
2022-11-29T21:37:20.160Z,7.2
2022-11-29T21:39:19.821Z,7.1
2022-11-29T21:41:23.033Z,7.1
2022-11-29T21:43:32.807Z,7
2022-11-29T21:45:22.688Z,7
2022-11-29T21:46:24.286Z,7
2022-11-29T21:48:24.010Z,7
2022-11-29T21:50:23.755Z,6.9
2022-11-29T21:52:23.550Z,6.9
2022-11-29T21:54:26.768Z,6.8
2022-11-29T21:56:26.591Z,6.8
2022-11-29T21:58:26.405Z,6.8
2022-11-29T22:04:25.749Z,6.8
2022-11-29T22:06:25.575Z,6.9
2022-11-29T22:08:28.790Z,6.8
2022-11-29T22:10:28.516Z,6.8
2022-11-29T22:12:34.089Z,6.9
2022-11-29T22:14:28.143Z,6.9
2022-11-29T22:16:27.957Z,6.8
2022-11-29T22:18:27.722Z,6.8
2022-11-29T22:20:27.541Z,6.8
2022-11-29T22:22:30.719Z,6.8
2022-11-29T22:24:30.467Z,6.8
2022-11-29T22:26:30.292Z,6.8
2022-11-29T22:28:30.121Z,6.8
2022-11-29T22:30:29.851Z,6.8
2022-11-29T22:32:29.589Z,6.8
2022-11-29T22:34:29.393Z,6.7
2022-11-29T22:36:32.632Z,6.7
2022-11-29T22:38:32.451Z,6.7
2022-11-29T22:40:32.290Z,6.6
2022-11-29T22:42:54.110Z,6.6
2022-11-29T22:44:53.853Z,6.5
2022-11-29T22:46:53.851Z,6.5
2022-11-29T22:48:56.961Z,6.5
2022-11-29T22:50:56.719Z,6.5
2022-11-29T22:52:56.511Z,6.5
2022-11-29T22:55:01.285Z,6.5
2022-11-29T22:58:55.897Z,6.4
2022-11-29T23:00:55.680Z,6.4
2022-11-29T23:02:58.924Z,6.4
2022-11-29T23:04:58.734Z,6.5
2022-11-29T23:06:58.549Z,6.5
2022-11-29T23:08:58.396Z,6.4
2022-11-29T23:10:58.226Z,6.4
2022-11-29T23:12:58.080Z,6.4
2022-11-29T23:14:58.104Z,6.4
2022-11-29T23:17:01.100Z,6.4
2022-11-29T23:19:00.961Z,6.3
2022-11-29T23:21:00.750Z,6.4
2022-11-29T23:23:00.596Z,6.3
2022-11-29T23:25:00.415Z,6.4
2022-11-29T23:27:00.252Z,6.3
2022-11-29T23:29:00.108Z,6.3
2022-11-29T23:31:03.314Z,6.3
2022-11-29T23:33:03.148Z,6.3
2022-11-29T23:38:04.483Z,6.3
2022-11-29T23:42:04.032Z,6.2
2022-11-29T23:44:07.260Z,6.3
2022-11-29T23:46:07.266Z,6.2
2022-11-29T23:48:06.912Z,6.3
2022-11-29T23:50:06.720Z,6.2
2022-11-29T23:52:06.480Z,6.2
2022-11-29T23:58:09.382Z,6.2
